sensor_id;sensor_type;location;lat;lon;timestamp;pressure;altitude;pressure_sealevel;temperature;humidity
78411;BME280;67706;51.074;-1.796;2023-04-03T00:02:26;102619.81;;;4.32;76.39
78411;BME280;67706;51.074;-1.796;2023-04-03T00:04:52;102630.06;;;4.28;76.15
78411;BME280;67706;51.074;-1.796;2023-04-03T00:07:21;102620.94;;;4.29;76.11
78411;BME280;67706;51.074;-1.796;2023-04-03T00:09:47;102627.88;;;4.33;76.05
78411;BME280;67706;51.074;-1.796;2023-04-03T00:12:14;102621.69;;;4.31;75.58
78411;BME280;67706;51.074;-1.796;2023-04-03T00:14:41;102616.13;;;4.33;76.02
78411;BME280;67706;51.074;-1.796;2023-04-03T00:17:08;102625.31;;;4.19;76.49
78411;BME280;67706;51.074;-1.796;2023-04-03T00:19:34;102624.22;;;4.22;77.00
78411;BME280;67706;51.074;-1.796;2023-04-03T00:22:04;102632.19;;;4.36;75.83
78411;BME280;67706;51.074;-1.796;2023-04-03T00:24:32;102623.25;;;4.23;76.18
78411;BME280;67706;51.074;-1.796;2023-04-03T00:26:59;102623.69;;;4.17;76.65
78411;BME280;67706;51.074;-1.796;2023-04-03T00:29:25;102621.94;;;4.16;76.72
78411;BME280;67706;51.074;-1.796;2023-04-03T00:31:52;102622.91;;;4.27;76.27
78411;BME280;67706;51.074;-1.796;2023-04-03T00:34:19;102617.63;;;4.00;76.84
78411;BME280;67706;51.074;-1.796;2023-04-03T00:36:45;102617.47;;;3.91;77.74
78411;BME280;67706;51.074;-1.796;2023-04-03T00:39:12;102626.81;;;3.87;78.33
78411;BME280;67706;51.074;-1.796;2023-04-03T00:41:40;102623.34;;;3.85;77.96
78411;BME280;67706;51.074;-1.796;2023-04-03T00:47:28;102621.72;;;3.82;77.69
78411;BME280;67706;51.074;-1.796;2023-04-03T00:49:56;102633.97;;;3.75;78.33
78411;BME280;67706;51.074;-1.796;2023-04-03T00:52:27;102632.88;;;3.78;78.47
78411;BME280;67706;51.074;-1.796;2023-04-03T00:54:57;102619.41;;;3.89;77.66
78411;BME280;67706;51.074;-1.796;2023-04-03T00:57:28;102626.81;;;3.74;78.52
78411;BME280;67706;51.074;-1.796;2023-04-03T01:00:00;102620.22;;;3.66;78.87
78411;BME280;67706;51.074;-1.796;2023-04-03T01:02:28;102620.97;;;3.68;78.72
78411;BME280;67706;51.074;-1.796;2023-04-03T01:04:54;102623.03;;;3.77;78.50
78411;BME280;67706;51.074;-1.796;2023-04-03T01:07:23;102634.75;;;3.65;79.14
78411;BME280;67706;51.074;-1.796;2023-04-03T01:09:53;102636.50;;;3.66;78.50
78411;BME280;67706;51.074;-1.796;2023-04-03T01:12:23;102630.75;;;3.58;79.30
78411;BME280;67706;51.074;-1.796;2023-04-03T01:14:55;102628.22;;;3.67;79.07
78411;BME280;67706;51.074;-1.796;2023-04-03T01:17:28;102634.66;;;3.54;79.41
78411;BME280;67706;51.074;-1.796;2023-04-03T01:22:55;102636.38;;;3.42;79.63
78411;BME280;67706;51.074;-1.796;2023-04-03T01:25:25;102635.50;;;3.42;79.76
78411;BME280;67706;51.074;-1.796;2023-04-03T01:27:52;102634.41;;;3.32;79.90
78411;BME280;67706;51.074;-1.796;2023-04-03T01:30:24;102639.84;;;3.32;79.50
78411;BME280;67706;51.074;-1.796;2023-04-03T01:32:55;102641.47;;;3.21;80.21
78411;BME280;67706;51.074;-1.796;2023-04-03T01:35:22;102634.63;;;3.16;80.42
78411;BME280;67706;51.074;-1.796;2023-04-03T01:37:49;102631.16;;;3.14;79.69
78411;BME280;67706;51.074;-1.796;2023-04-03T01:40:16;102631.56;;;3.08;80.65
78411;BME280;67706;51.074;-1.796;2023-04-03T01:42:44;102632.88;;;3.02;80.37
78411;BME280;67706;51.074;-1.796;2023-04-03T01:45:10;102633.91;;;2.87;81.03
78411;BME280;67706;51.074;-1.796;2023-04-03T01:47:37;102630.09;;;2.77;81.31
78411;BME280;67706;51.074;-1.796;2023-04-03T01:50:06;102619.81;;;2.82;81.34
78411;BME280;67706;51.074;-1.796;2023-04-03T01:52:32;102623.59;;;2.80;81.17
78411;BME280;67706;51.074;-1.796;2023-04-03T01:54:59;102620.63;;;2.70;81.44
78411;BME280;67706;51.074;-1.796;2023-04-03T01:57:25;102619.25;;;2.77;81.42
78411;BME280;67706;51.074;-1.796;2023-04-03T01:59:52;102615.59;;;2.78;81.54
78411;BME280;67706;51.074;-1.796;2023-04-03T02:02:19;102613.06;;;2.75;81.38
78411;BME280;67706;51.074;-1.796;2023-04-03T02:04:46;102621.53;;;2.83;80.84
78411;BME280;67706;51.074;-1.796;2023-04-03T02:07:14;102618.72;;;2.72;81.22
78411;BME280;67706;51.074;-1.796;2023-04-03T02:09:40;102619.38;;;2.76;81.41
78411;BME280;67706;51.074;-1.796;2023-04-03T02:12:07;102619.25;;;2.77;81.38
78411;BME280;67706;51.074;-1.796;2023-04-03T02:14:34;102620.91;;;2.80;81.37
78411;BME280;67706;51.074;-1.796;2023-04-03T02:17:01;102615.69;;;2.89;80.98
78411;BME280;67706;51.074;-1.796;2023-04-03T02:19:30;102619.16;;;2.79;80.83
78411;BME280;67706;51.074;-1.796;2023-04-03T02:21:56;102617.75;;;2.86;80.71
78411;BME280;67706;51.074;-1.796;2023-04-03T02:24:25;102631.28;;;2.73;80.90
78411;BME280;67706;51.074;-1.796;2023-04-03T02:26:51;102621.78;;;2.80;80.71
78411;BME280;67706;51.074;-1.796;2023-04-03T02:29:18;102628.59;;;2.86;80.04
78411;BME280;67706;51.074;-1.796;2023-04-03T02:31:45;102626.97;;;2.83;80.41
78411;BME280;67706;51.074;-1.796;2023-04-03T02:34:11;102633.13;;;2.73;80.42
78411;BME280;67706;51.074;-1.796;2023-04-03T02:36:38;102628.38;;;2.76;80.62
78411;BME280;67706;51.074;-1.796;2023-04-03T02:39:05;102626.78;;;2.86;80.14
78411;BME280;67706;51.074;-1.796;2023-04-03T02:41:33;102619.38;;;2.76;79.97
78411;BME280;67706;51.074;-1.796;2023-04-03T02:44:00;102628.69;;;2.72;80.38
78411;BME280;67706;51.074;-1.796;2023-04-03T02:46:27;102631.50;;;2.83;80.43
78411;BME280;67706;51.074;-1.796;2023-04-03T02:48:54;102632.38;;;2.83;79.77
78411;BME280;67706;51.074;-1.796;2023-04-03T02:51:20;102626.84;;;2.72;80.07
78411;BME280;67706;51.074;-1.796;2023-04-03T02:53:48;102624.53;;;2.66;80.44
78411;BME280;67706;51.074;-1.796;2023-04-03T02:56:15;102627.34;;;2.65;80.15
78411;BME280;67706;51.074;-1.796;2023-04-03T02:58:43;102623.56;;;2.67;80.37
78411;BME280;67706;51.074;-1.796;2023-04-03T03:01:11;102628.75;;;2.70;80.46
78411;BME280;67706;51.074;-1.796;2023-04-03T03:03:37;102625.34;;;2.54;80.53
78411;BME280;67706;51.074;-1.796;2023-04-03T03:06:04;102621.88;;;2.52;80.67
78411;BME280;67706;51.074;-1.796;2023-04-03T03:08:32;102617.88;;;2.45;81.08
78411;BME280;67706;51.074;-1.796;2023-04-03T03:10:58;102617.50;;;2.37;81.17
78411;BME280;67706;51.074;-1.796;2023-04-03T03:13:25;102636.00;;;2.57;80.75
78411;BME280;67706;51.074;-1.796;2023-04-03T03:15:53;102628.34;;;2.64;80.25
78411;BME280;67706;51.074;-1.796;2023-04-03T03:18:20;102615.41;;;2.55;80.33
78411;BME280;67706;51.074;-1.796;2023-04-03T03:20:50;102613.50;;;2.69;79.73
78411;BME280;67706;51.074;-1.796;2023-04-03T03:23:17;102609.44;;;2.62;79.89
78411;BME280;67706;51.074;-1.796;2023-04-03T03:25:44;102622.34;;;2.59;80.17
78411;BME280;67706;51.074;-1.796;2023-04-03T03:28:10;102620.72;;;2.56;80.46
78411;BME280;67706;51.074;-1.796;2023-04-03T03:30:37;102623.78;;;2.37;80.43
78411;BME280;67706;51.074;-1.796;2023-04-03T03:33:05;102619.84;;;2.29;80.85
78411;BME280;67706;51.074;-1.796;2023-04-03T03:35:32;102624.50;;;2.27;81.27
78411;BME280;67706;51.074;-1.796;2023-04-03T03:37:59;102627.19;;;2.27;80.97
78411;BME280;67706;51.074;-1.796;2023-04-03T03:40:25;102615.06;;;2.20;81.16
78411;BME280;67706;51.074;-1.796;2023-04-03T03:42:52;102611.31;;;2.35;80.38
78411;BME280;67706;51.074;-1.796;2023-04-03T03:45:19;102618.16;;;2.40;79.88
78411;BME280;67706;51.074;-1.796;2023-04-03T03:47:49;102618.16;;;2.40;79.67
78411;BME280;67706;51.074;-1.796;2023-04-03T03:50:17;102619.25;;;2.38;79.78
78411;BME280;67706;51.074;-1.796;2023-04-03T03:52:44;102616.25;;;2.28;79.88
78411;BME280;67706;51.074;-1.796;2023-04-03T03:55:11;102610.94;;;2.27;80.14
78411;BME280;67706;51.074;-1.796;2023-04-03T03:57:38;102617.03;;;2.30;79.96
78411;BME280;67706;51.074;-1.796;2023-04-03T04:00:06;102617.91;;;2.31;79.82
78411;BME280;67706;51.074;-1.796;2023-04-03T04:02:34;102611.06;;;2.25;79.93
78411;BME280;67706;51.074;-1.796;2023-04-03T04:05:00;102615.72;;;2.23;80.13
78411;BME280;67706;51.074;-1.796;2023-04-03T04:07:29;102611.53;;;2.32;79.74
78411;BME280;67706;51.074;-1.796;2023-04-03T04:09:55;102603.00;;;2.38;79.83
78411;BME280;67706;51.074;-1.796;2023-04-03T04:12:22;102603.53;;;2.43;80.04
78411;BME280;67706;51.074;-1.796;2023-04-03T04:14:48;102609.34;;;2.51;79.17
78411;BME280;67706;51.074;-1.796;2023-04-03T04:17:15;102597.41;;;2.54;79.04
78411;BME280;67706;51.074;-1.796;2023-04-03T04:19:42;102597.81;;;2.48;79.25
78411;BME280;67706;51.074;-1.796;2023-04-03T04:22:09;102601.41;;;2.48;79.54
78411;BME280;67706;51.074;-1.796;2023-04-03T04:24:36;102599.56;;;2.49;78.59
78411;BME280;67706;51.074;-1.796;2023-04-03T04:27:03;102598.50;;;2.51;79.19
78411;BME280;67706;51.074;-1.796;2023-04-03T04:29:30;102594.44;;;2.44;79.70
78411;BME280;67706;51.074;-1.796;2023-04-03T04:32:02;102604.09;;;2.48;78.77
78411;BME280;67706;51.074;-1.796;2023-04-03T04:34:28;102601.41;;;2.48;78.80
78411;BME280;67706;51.074;-1.796;2023-04-03T04:36:56;102595.22;;;2.46;78.86
78411;BME280;67706;51.074;-1.796;2023-04-03T04:39:22;102600.59;;;2.33;79.29
78411;BME280;67706;51.074;-1.796;2023-04-03T04:41:50;102596.59;;;2.39;79.16
78411;BME280;67706;51.074;-1.796;2023-04-03T04:44:17;102592.56;;;2.32;79.48
78411;BME280;67706;51.074;-1.796;2023-04-03T04:46:44;102596.88;;;2.22;79.44
78411;BME280;67706;51.074;-1.796;2023-04-03T04:49:10;102593.41;;;2.20;79.66
78411;BME280;67706;51.074;-1.796;2023-04-03T04:51:37;102594.66;;;2.14;79.78
78411;BME280;67706;51.074;-1.796;2023-04-03T04:54:03;102586.81;;;2.10;79.80
78411;BME280;67706;51.074;-1.796;2023-04-03T04:56:31;102589.63;;;2.08;80.00
78411;BME280;67706;51.074;-1.796;2023-04-03T04:58:59;102588.88;;;2.06;79.64
78411;BME280;67706;51.074;-1.796;2023-04-03T05:01:25;102589.75;;;2.07;80.00
78411;BME280;67706;51.074;-1.796;2023-04-03T05:03:52;102589.16;;;2.02;80.14
78411;BME280;67706;51.074;-1.796;2023-04-03T05:06:19;102589.16;;;2.02;80.21
78411;BME280;67706;51.074;-1.796;2023-04-03T05:08:45;102589.69;;;1.94;80.67
78411;BME280;67706;51.074;-1.796;2023-04-03T05:11:12;102588.09;;;2.04;80.01
78411;BME280;67706;51.074;-1.796;2023-04-03T05:13:38;102593.03;;;1.98;80.35
78411;BME280;67706;51.074;-1.796;2023-04-03T05:16:07;102604.84;;;1.97;80.55
78411;BME280;67706;51.074;-1.796;2023-04-03T05:18:33;102589.47;;;1.97;80.31
78411;BME280;67706;51.074;-1.796;2023-04-03T05:21:00;102598.47;;;1.98;80.41
78411;BME280;67706;51.074;-1.796;2023-04-03T05:23:27;102602.34;;;1.94;80.76
78411;BME280;67706;51.074;-1.796;2023-04-03T05:25:53;102597.59;;;1.97;80.34
78411;BME280;67706;51.074;-1.796;2023-04-03T05:28:20;102594.50;;;1.89;80.55
78411;BME280;67706;51.074;-1.796;2023-04-03T05:30:53;102599.03;;;1.89;80.74
78411;BME280;67706;51.074;-1.796;2023-04-03T05:33:22;102594.03;;;1.97;80.70
78411;BME280;67706;51.074;-1.796;2023-04-03T05:35:49;102595.66;;;1.99;80.70
78411;BME280;67706;51.074;-1.796;2023-04-03T05:38:19;102591.41;;;2.09;80.16
78411;BME280;67706;51.074;-1.796;2023-04-03T05:40:46;102586.81;;;2.10;79.99
78411;BME280;67706;51.074;-1.796;2023-04-03T05:43:16;102585.22;;;2.07;79.86
78411;BME280;67706;51.074;-1.796;2023-04-03T05:45:43;102580.69;;;2.20;79.41
78411;BME280;67706;51.074;-1.796;2023-04-03T05:48:10;102584.28;;;2.21;80.49
78411;BME280;67706;51.074;-1.796;2023-04-03T05:50:39;102590.75;;;2.18;79.85
78411;BME280;67706;51.074;-1.796;2023-04-03T05:53:14;102583.72;;;2.16;79.72
78411;BME280;67706;51.074;-1.796;2023-04-03T05:55:42;102585.16;;;2.21;79.11
78411;BME280;67706;51.074;-1.796;2023-04-03T05:58:09;102569.28;;;2.03;79.73
78411;BME280;67706;51.074;-1.796;2023-04-03T06:00:35;102583.56;;;2.05;79.94
78411;BME280;67706;51.074;-1.796;2023-04-03T06:03:02;102588.22;;;2.03;80.14
78411;BME280;67706;51.074;-1.796;2023-04-03T06:05:28;102588.09;;;2.04;80.03
78411;BME280;67706;51.074;-1.796;2023-04-03T06:07:56;102583.22;;;1.97;80.40
78411;BME280;67706;51.074;-1.796;2023-04-03T06:10:27;102590.03;;;2.02;80.52
78411;BME280;67706;51.074;-1.796;2023-04-03T06:12:53;102589.63;;;2.08;80.08
78411;BME280;67706;51.074;-1.796;2023-04-03T06:15:20;102589.81;;;2.05;80.59
78411;BME280;67706;51.074;-1.796;2023-04-03T06:17:47;102591.94;;;2.14;80.17
78411;BME280;67706;51.074;-1.796;2023-04-03T06:20:14;102585.94;;;2.23;79.58
78411;BME280;67706;51.074;-1.796;2023-04-03T06:22:41;102585.41;;;2.31;79.19
78411;BME280;67706;51.074;-1.796;2023-04-03T06:25:10;102578.91;;;2.33;79.32
78411;BME280;67706;51.074;-1.796;2023-04-03T06:27:37;102581.03;;;2.42;78.99
78411;BME280;67706;51.074;-1.796;2023-04-03T06:30:06;102580.72;;;2.47;78.90
78411;BME280;67706;51.074;-1.796;2023-04-03T06:32:33;102578.53;;;2.52;78.72
78411;BME280;67706;51.074;-1.796;2023-04-03T06:34:59;102580.06;;;2.56;78.75
78411;BME280;67706;51.074;-1.796;2023-04-03T06:37:26;102584.22;;;2.62;78.37
78411;BME280;67706;51.074;-1.796;2023-04-03T06:39:54;102577.16;;;2.59;78.75
78411;BME280;67706;51.074;-1.796;2023-04-03T06:42:22;102576.00;;;2.76;78.19
78411;BME280;67706;51.074;-1.796;2023-04-03T06:44:49;102572.53;;;2.74;77.33
78411;BME280;67706;51.074;-1.796;2023-04-03T06:47:16;102586.84;;;2.76;77.68
78411;BME280;67706;51.074;-1.796;2023-04-03T06:49:43;102585.25;;;2.86;77.71
78411;BME280;67706;51.074;-1.796;2023-04-03T06:52:11;102580.69;;;2.86;77.09
78411;BME280;67706;51.074;-1.796;2023-04-03T06:54:39;102583.31;;;3.00;77.40
78411;BME280;67706;51.074;-1.796;2023-04-03T06:57:06;102591.56;;;2.99;77.05
78411;BME280;67706;51.074;-1.796;2023-04-03T06:59:35;102592.09;;;3.04;77.51
78411;BME280;67706;51.074;-1.796;2023-04-03T07:02:02;102594.72;;;3.18;77.28
78411;BME280;67706;51.074;-1.796;2023-04-03T07:04:28;102583.66;;;3.21;77.33
78411;BME280;67706;51.074;-1.796;2023-04-03T07:06:56;102575.63;;;3.32;77.30
78411;BME280;67706;51.074;-1.796;2023-04-03T07:09:22;102580.94;;;3.34;77.32
78411;BME280;67706;51.074;-1.796;2023-04-03T07:11:51;102589.31;;;3.43;76.78
78411;BME280;67706;51.074;-1.796;2023-04-03T07:14:19;102587.03;;;3.50;76.32
78411;BME280;67706;51.074;-1.796;2023-04-03T07:16:48;102587.34;;;3.58;75.92
78411;BME280;67706;51.074;-1.796;2023-04-03T07:19:18;102587.97;;;3.61;76.18
78411;BME280;67706;51.074;-1.796;2023-04-03T07:21:49;102580.78;;;3.73;75.71
78411;BME280;67706;51.074;-1.796;2023-04-03T07:24:17;102578.59;;;3.78;75.85
78411;BME280;67706;51.074;-1.796;2023-04-03T07:26:44;102577.63;;;3.91;75.40
78411;BME280;67706;51.074;-1.796;2023-04-03T07:29:14;102578.81;;;3.87;75.81
78411;BME280;67706;51.074;-1.796;2023-04-03T07:31:41;102581.09;;;3.93;75.98
78411;BME280;67706;51.074;-1.796;2023-04-03T07:34:11;102569.75;;;3.99;75.38
78411;BME280;67706;51.074;-1.796;2023-04-03T07:36:39;102569.44;;;4.04;75.84
78411;BME280;67706;51.074;-1.796;2023-04-03T07:39:06;102576.38;;;4.08;75.81
78411;BME280;67706;51.074;-1.796;2023-04-03T07:41:34;102575.38;;;4.09;75.48
78411;BME280;67706;51.074;-1.796;2023-04-03T07:44:10;102572.09;;;4.17;75.52
78411;BME280;67706;51.074;-1.796;2023-04-03T07:46:37;102575.44;;;4.20;75.86
78411;BME280;67706;51.074;-1.796;2023-04-03T07:49:06;102571.97;;;4.18;75.46
78411;BME280;67706;51.074;-1.796;2023-04-03T07:51:35;102567.88;;;4.36;75.13
78411;BME280;67706;51.074;-1.796;2023-04-03T07:54:02;102569.63;;;4.37;75.12
78411;BME280;67706;51.074;-1.796;2023-04-03T07:56:30;102574.81;;;4.40;75.19
78411;BME280;67706;51.074;-1.796;2023-04-03T07:58:59;102569.44;;;4.51;75.02
78411;BME280;67706;51.074;-1.796;2023-04-03T08:01:30;102571.31;;;4.62;74.54
78411;BME280;67706;51.074;-1.796;2023-04-03T08:03:59;102568.25;;;4.66;74.70
78411;BME280;67706;51.074;-1.796;2023-04-03T08:06:26;102569.00;;;4.68;74.85
78411;BME280;67706;51.074;-1.796;2023-04-03T08:08:56;102565.13;;;4.83;74.36
78411;BME280;67706;51.074;-1.796;2023-04-03T08:11:24;102575.25;;;4.93;74.13
78411;BME280;67706;51.074;-1.796;2023-04-03T08:13:55;102571.59;;;5.05;73.04
78411;BME280;67706;51.074;-1.796;2023-04-03T08:16:30;102575.44;;;5.13;72.72
78411;BME280;67706;51.074;-1.796;2023-04-03T08:19:06;102576.66;;;5.09;72.73
78411;BME280;67706;51.074;-1.796;2023-04-03T08:21:48;102580.28;;;5.21;72.69
78411;BME280;67706;51.074;-1.796;2023-04-03T08:24:18;102579.78;;;5.27;72.38
78411;BME280;67706;51.074;-1.796;2023-04-03T08:26:55;102578.44;;;5.32;71.69
78411;BME280;67706;51.074;-1.796;2023-04-03T08:32:18;102581.69;;;5.48;71.58
78411;BME280;67706;51.074;-1.796;2023-04-03T08:34:49;102572.38;;;5.51;71.41
78411;BME280;67706;51.074;-1.796;2023-04-03T08:37:20;102567.59;;;5.54;71.79
78411;BME280;67706;51.074;-1.796;2023-04-03T08:39:54;102573.13;;;5.64;71.58
78411;BME280;67706;51.074;-1.796;2023-04-03T08:42:58;102565.47;;;5.69;72.34
78411;BME280;67706;51.074;-1.796;2023-04-03T08:45:44;102564.47;;;5.81;71.74
78411;BME280;67706;51.074;-1.796;2023-04-03T08:48:15;102562.75;;;6.02;71.09
78411;BME280;67706;51.074;-1.796;2023-04-03T08:50:52;102565.47;;;6.13;70.07
78411;BME280;67706;51.074;-1.796;2023-04-03T08:53:21;102555.00;;;6.29;70.08
78411;BME280;67706;51.074;-1.796;2023-04-03T08:55:53;102555.56;;;6.44;69.25
78411;BME280;67706;51.074;-1.796;2023-04-03T08:58:22;102560.88;;;6.46;68.81
78411;BME280;67706;51.074;-1.796;2023-04-03T09:00:55;102554.19;;;6.50;69.22
78411;BME280;67706;51.074;-1.796;2023-04-03T09:03:23;102551.94;;;6.55;69.92
78411;BME280;67706;51.074;-1.796;2023-04-03T09:05:57;102557.81;;;6.71;68.60
78411;BME280;67706;51.074;-1.796;2023-04-03T09:08:29;102551.63;;;6.69;68.91
78411;BME280;67706;51.074;-1.796;2023-04-03T09:11:13;102544.78;;;6.74;69.02
78411;BME280;67706;51.074;-1.796;2023-04-03T09:13:49;102553.78;;;6.86;68.34
78411;BME280;67706;51.074;-1.796;2023-04-03T09:16:39;102542.47;;;6.90;68.74
78411;BME280;67706;51.074;-1.796;2023-04-03T09:19:18;102548.31;;;7.06;66.85
78411;BME280;67706;51.074;-1.796;2023-04-03T09:21:51;102540.31;;;7.14;66.59
78411;BME280;67706;51.074;-1.796;2023-04-03T09:24:25;102549.75;;;7.31;66.17
78411;BME280;67706;51.074;-1.796;2023-04-03T09:27:00;102542.75;;;7.38;65.43
78411;BME280;67706;51.074;-1.796;2023-04-03T09:32:25;102544.28;;;7.52;64.94
78411;BME280;67706;51.074;-1.796;2023-04-03T09:34:54;102543.03;;;7.65;64.33
78411;BME280;67706;51.074;-1.796;2023-04-03T09:37:41;102547.53;;;7.85;63.74
78411;BME280;67706;51.074;-1.796;2023-04-03T09:40:34;102543.75;;;8.07;62.63
78411;BME280;67706;51.074;-1.796;2023-04-03T09:43:27;102539.63;;;8.32;61.91
78411;BME280;67706;51.074;-1.796;2023-04-03T09:46:17;102551.31;;;8.43;61.34
78411;BME280;67706;51.074;-1.796;2023-04-03T09:48:51;102539.81;;;8.59;60.98
78411;BME280;67706;51.074;-1.796;2023-04-03T09:51:18;102536.94;;;8.70;61.58
78411;BME280;67706;51.074;-1.796;2023-04-03T09:53:46;102535.34;;;8.87;60.85
78411;BME280;67706;51.074;-1.796;2023-04-03T09:56:21;102543.09;;;9.10;59.02
78411;BME280;67706;51.074;-1.796;2023-04-03T09:59:14;102537.47;;;9.21;57.92
78411;BME280;67706;51.074;-1.796;2023-04-03T10:01:43;102528.81;;;9.16;58.18
78411;BME280;67706;51.074;-1.796;2023-04-03T10:04:13;102530.03;;;9.41;55.38
78411;BME280;67706;51.074;-1.796;2023-04-03T10:06:42;102519.44;;;9.55;54.84
78411;BME280;67706;51.074;-1.796;2023-04-03T10:09:18;102516.53;;;9.67;55.05
78411;BME280;67706;51.074;-1.796;2023-04-03T10:12:07;102517.94;;;9.71;54.61
78411;BME280;67706;51.074;-1.796;2023-04-03T10:14:38;102517.13;;;9.60;53.86
78411;BME280;67706;51.074;-1.796;2023-04-03T10:17:18;102522.69;;;9.41;54.95
78411;BME280;67706;51.074;-1.796;2023-04-03T10:19:56;102520.50;;;9.45;55.11
78411;BME280;67706;51.074;-1.796;2023-04-03T10:22:32;102524.16;;;9.36;54.73
78411;BME280;67706;51.074;-1.796;2023-04-03T10:25:07;102525.72;;;9.38;55.13
78411;BME280;67706;51.074;-1.796;2023-04-03T10:27:51;102525.00;;;9.36;54.13
78411;BME280;67706;51.074;-1.796;2023-04-03T10:30:31;102522.13;;;9.28;56.12
78411;BME280;67706;51.074;-1.796;2023-04-03T10:36:20;102522.81;;;9.77;55.74
78411;BME280;67706;51.074;-1.796;2023-04-03T10:38:59;102522.78;;;9.59;53.99
78411;BME280;67706;51.074;-1.796;2023-04-03T10:41:36;102524.31;;;9.61;55.36
78411;BME280;67706;51.074;-1.796;2023-04-03T10:44:14;102518.41;;;9.66;54.68
78411;BME280;67706;51.074;-1.796;2023-04-03T10:46:48;102520.16;;;9.57;53.87
78411;BME280;67706;51.074;-1.796;2023-04-03T10:49:26;102523.63;;;9.87;54.66
78411;BME280;67706;51.074;-1.796;2023-04-03T10:52:01;102503.22;;;10.26;53.94
78411;BME280;67706;51.074;-1.796;2023-04-03T10:54:39;102515.31;;;10.51;52.87
78411;BME280;67706;51.074;-1.796;2023-04-03T10:57:10;102508.38;;;10.64;51.77
78411;BME280;67706;51.074;-1.796;2023-04-03T10:59:49;102508.09;;;10.67;52.46
78411;BME280;67706;51.074;-1.796;2023-04-03T11:02:30;102505.75;;;10.72;51.18
78411;BME280;67706;51.074;-1.796;2023-04-03T11:05:02;102511.25;;;10.72;51.22
78411;BME280;67706;51.074;-1.796;2023-04-03T11:07:38;102501.97;;;10.73;51.33
78411;BME280;67706;51.074;-1.796;2023-04-03T11:10:13;102497.72;;;10.79;51.35
78411;BME280;67706;51.074;-1.796;2023-04-03T11:12:44;102502.31;;;10.70;51.89
78411;BME280;67706;51.074;-1.796;2023-04-03T11:15:14;102490.41;;;10.87;52.17
78411;BME280;67706;51.074;-1.796;2023-04-03T11:17:46;102496.06;;;10.68;51.28
78411;BME280;67706;51.074;-1.796;2023-04-03T11:20:18;102488.63;;;10.43;51.29
78411;BME280;67706;51.074;-1.796;2023-04-03T11:22:58;102494.38;;;10.50;52.23
78411;BME280;67706;51.074;-1.796;2023-04-03T11:25:29;102486.53;;;10.55;51.11
78411;BME280;67706;51.074;-1.796;2023-04-03T11:27:59;102487.00;;;10.50;51.75
78411;BME280;67706;51.074;-1.796;2023-04-03T11:30:32;102488.63;;;10.43;52.19
78411;BME280;67706;51.074;-1.796;2023-04-03T11:33:19;102484.66;;;10.55;52.06
78411;BME280;67706;51.074;-1.796;2023-04-03T11:35:50;102472.41;;;10.67;51.25
78411;BME280;67706;51.074;-1.796;2023-04-03T11:38:22;102484.84;;;10.79;51.74
78411;BME280;67706;51.074;-1.796;2023-04-03T11:40:51;102471.19;;;10.87;50.56
78411;BME280;67706;51.074;-1.796;2023-04-03T11:43:25;102477.66;;;11.04;50.96
78411;BME280;67706;51.074;-1.796;2023-04-03T11:45:54;102481.97;;;11.06;50.34
78411;BME280;67706;51.074;-1.796;2023-04-03T11:48:53;102469.06;;;11.25;50.06
78411;BME280;67706;51.074;-1.796;2023-04-03T11:51:41;102475.53;;;11.15;49.32
78411;BME280;67706;51.074;-1.796;2023-04-03T11:54:42;102463.78;;;11.05;49.72
78411;BME280;67706;51.074;-1.796;2023-04-03T11:57:47;102462.44;;;11.09;49.12
78411;BME280;67706;51.074;-1.796;2023-04-03T12:00:50;102456.34;;;11.24;48.70
78411;BME280;67706;51.074;-1.796;2023-04-03T12:06:50;102446.03;;;11.26;48.37
78411;BME280;67706;51.074;-1.796;2023-04-03T12:12:39;102437.94;;;11.50;48.27
78411;BME280;67706;51.074;-1.796;2023-04-03T12:15:21;102438.75;;;11.42;48.64
78411;BME280;67706;51.074;-1.796;2023-04-03T12:17:48;102435.31;;;11.40;47.83
78411;BME280;67706;51.074;-1.796;2023-04-03T12:23:32;102424.56;;;11.21;47.39
78411;BME280;67706;51.074;-1.796;2023-04-03T12:26:03;102425.41;;;11.22;48.51
78411;BME280;67706;51.074;-1.796;2023-04-03T12:28:36;102419.16;;;11.37;48.97
78411;BME280;67706;51.074;-1.796;2023-04-03T12:31:04;102416.28;;;11.47;48.45
78411;BME280;67706;51.074;-1.796;2023-04-03T12:33:38;102409.22;;;11.44;48.61
78411;BME280;67706;51.074;-1.796;2023-04-03T12:36:13;102415.44;;;11.54;48.43
78411;BME280;67706;51.074;-1.796;2023-04-03T12:42:00;102415.38;;;11.38;47.05
78411;BME280;67706;51.074;-1.796;2023-04-03T12:44:38;102409.19;;;11.36;47.50
78411;BME280;67706;51.074;-1.796;2023-04-03T12:47:22;102412.66;;;11.12;47.99
78411;BME280;67706;51.074;-1.796;2023-04-03T12:49:50;102400.38;;;11.25;47.98
78411;BME280;67706;51.074;-1.796;2023-04-03T12:52:32;102414.19;;;11.41;48.99
78411;BME280;67706;51.074;-1.796;2023-04-03T12:55:00;102405.81;;;11.58;47.53
78411;BME280;67706;51.074;-1.796;2023-04-03T12:57:30;102395.38;;;11.62;48.09
78411;BME280;67706;51.074;-1.796;2023-04-03T12:59:58;102404.81;;;11.59;48.55
78411;BME280;67706;51.074;-1.796;2023-04-03T13:02:27;102391.84;;;11.44;48.79
78411;BME280;67706;51.074;-1.796;2023-04-03T13:04:56;102390.88;;;11.53;49.81
78411;BME280;67706;51.074;-1.796;2023-04-03T13:07:28;102393.31;;;11.64;48.16
78411;BME280;67706;51.074;-1.796;2023-04-03T13:10:14;102381.09;;;11.58;48.03
78411;BME280;67706;51.074;-1.796;2023-04-03T13:12:51;102385.31;;;11.70;48.39
78411;BME280;67706;51.074;-1.796;2023-04-03T13:15:20;102386.19;;;11.87;48.70
78411;BME280;67706;51.074;-1.796;2023-04-03T13:17:48;102384.16;;;11.89;47.94
78411;BME280;67706;51.074;-1.796;2023-04-03T13:20:21;102391.19;;;11.91;47.69
78411;BME280;67706;51.074;-1.796;2023-04-03T13:22:53;102379.47;;;11.81;48.90
78411;BME280;67706;51.074;-1.796;2023-04-03T13:25:24;102376.56;;;11.83;48.74
78411;BME280;67706;51.074;-1.796;2023-04-03T13:27:54;102367.94;;;11.70;48.57
78411;BME280;67706;51.074;-1.796;2023-04-03T13:30:25;102370.06;;;11.50;49.62
78411;BME280;67706;51.074;-1.796;2023-04-03T13:32:54;102362.47;;;11.78;49.02
78411;BME280;67706;51.074;-1.796;2023-04-03T13:35:31;102360.41;;;11.96;48.78